sensor_id;sensor_type;location;lat;lon;timestamp;pressure;altitude;pressure_sealevel;temperature;humidity
73671;BME280;61968;48.178;11.566;2023-06-24T00:01:01;96659.66;;;18.92;37.60
73671;BME280;61968;48.178;11.566;2023-06-24T00:03:29;96660.22;;;18.94;37.38
73671;BME280;61968;48.178;11.566;2023-06-24T00:05:55;96655.91;;;18.88;37.58
73671;BME280;61968;48.178;11.566;2023-06-24T00:08:22;96656.94;;;18.81;37.82
73671;BME280;61968;48.178;11.566;2023-06-24T00:10:49;96653.47;;;18.86;37.39
73671;BME280;61968;48.178;11.566;2023-06-24T00:13:16;96656.31;;;18.74;38.19
73671;BME280;61968;48.178;11.566;2023-06-24T00:15:42;96657.66;;;18.72;37.96
73671;BME280;61968;48.178;11.566;2023-06-24T00:18:09;96659.00;;;18.69;37.60
73671;BME280;61968;48.178;11.566;2023-06-24T00:20:37;96650.13;;;18.69;38.25
73671;BME280;61968;48.178;11.566;2023-06-24T00:23:05;96656.09;;;18.76;38.02
73671;BME280;61968;48.178;11.566;2023-06-24T00:25:31;96643.84;;;18.85;37.37
73671;BME280;61968;48.178;11.566;2023-06-24T00:27:58;96647.03;;;18.82;37.88
73671;BME280;61968;48.178;11.566;2023-06-24T00:30:25;96646.66;;;18.68;38.06
73671;BME280;61968;48.178;11.566;2023-06-24T00:32:52;96644.56;;;18.75;38.15
73671;BME280;61968;48.178;11.566;2023-06-24T00:35:19;96647.53;;;18.79;37.70
73671;BME280;61968;48.178;11.566;2023-06-24T00:37:46;96652.88;;;18.79;37.56
73671;BME280;61968;48.178;11.566;2023-06-24T00:40:13;96643.44;;;18.66;37.73
73671;BME280;61968;48.178;11.566;2023-06-24T00:42:42;96647.44;;;18.69;37.80
73671;BME280;61968;48.178;11.566;2023-06-24T00:45:10;96637.84;;;18.73;37.60
73671;BME280;61968;48.178;11.566;2023-06-24T00:47:37;96635.69;;;18.75;37.90
73671;BME280;61968;48.178;11.566;2023-06-24T00:50:05;96637.56;;;18.69;37.90
73671;BME280;61968;48.178;11.566;2023-06-24T00:52:32;96641.38;;;18.78;37.55
73671;BME280;61968;48.178;11.566;2023-06-24T00:55:04;96634.44;;;18.83;37.73
73671;BME280;61968;48.178;11.566;2023-06-24T00:57:32;96634.38;;;18.77;37.48
73671;BME280;61968;48.178;11.566;2023-06-24T00:59:59;96624.78;;;18.81;37.51
73671;BME280;61968;48.178;11.566;2023-06-24T01:02:26;96624.47;;;18.78;37.15
73671;BME280;61968;48.178;11.566;2023-06-24T01:04:53;96621.53;;;18.79;37.29
73671;BME280;61968;48.178;11.566;2023-06-24T01:07:19;96618.59;;;18.81;37.41
73671;BME280;61968;48.178;11.566;2023-06-24T01:09:47;96616.97;;;18.80;37.54
73671;BME280;61968;48.178;11.566;2023-06-24T01:12:15;96623.13;;;18.75;37.77
73671;BME280;61968;48.178;11.566;2023-06-24T01:14:42;96614.28;;;18.80;37.27
73671;BME280;61968;48.178;11.566;2023-06-24T01:17:12;96614.25;;;18.75;37.97
73671;BME280;61968;48.178;11.566;2023-06-24T01:19:54;96613.75;;;18.78;37.92
73671;BME280;61968;48.178;11.566;2023-06-24T01:22:46;96614.03;;;18.76;37.76
73671;BME280;61968;48.178;11.566;2023-06-24T01:25:24;96608.09;;;18.69;37.79
73671;BME280;61968;48.178;11.566;2023-06-24T01:28:27;96611.31;;;18.66;38.04
73671;BME280;61968;48.178;11.566;2023-06-24T01:31:21;96608.00;;;18.49;38.04
73671;BME280;61968;48.178;11.566;2023-06-24T01:33:54;96605.03;;;18.45;37.41
73671;BME280;61968;48.178;11.566;2023-06-24T01:36:25;96604.00;;;18.51;37.76
73671;BME280;61968;48.178;11.566;2023-06-24T01:38:59;96607.16;;;18.43;38.22
73671;BME280;61968;48.178;11.566;2023-06-24T01:41:31;96603.69;;;18.43;37.85
73671;BME280;61968;48.178;11.566;2023-06-24T01:43:59;96603.72;;;18.53;37.53
73671;BME280;61968;48.178;11.566;2023-06-24T01:46:29;96602.69;;;18.54;37.35
73671;BME280;61968;48.178;11.566;2023-06-24T01:48:59;96596.22;;;18.50;37.51
73671;BME280;61968;48.178;11.566;2023-06-24T01:51:28;96601.59;;;18.55;37.55
73671;BME280;61968;48.178;11.566;2023-06-24T01:54:00;96590.88;;;18.55;37.55
73671;BME280;61968;48.178;11.566;2023-06-24T01:56:28;96598.34;;;18.48;37.58
73671;BME280;61968;48.178;11.566;2023-06-24T01:58:57;96598.00;;;18.34;37.59
73671;BME280;61968;48.178;11.566;2023-06-24T02:01:25;96601.75;;;18.33;37.08
73671;BME280;61968;48.178;11.566;2023-06-24T02:03:53;96594.28;;;18.40;37.53
73671;BME280;61968;48.178;11.566;2023-06-24T02:06:22;96590.25;;;18.38;37.40
73671;BME280;61968;48.178;11.566;2023-06-24T02:08:50;96596.72;;;18.47;37.54
73671;BME280;61968;48.178;11.566;2023-06-24T02:11:19;96597.19;;;18.33;37.88
73671;BME280;61968;48.178;11.566;2023-06-24T02:13:47;96601.75;;;18.38;37.76
73671;BME280;61968;48.178;11.566;2023-06-24T02:16:16;96595.88;;;18.41;37.45
73671;BME280;61968;48.178;11.566;2023-06-24T02:18:44;96596.41;;;18.38;37.79
73671;BME280;61968;48.178;11.566;2023-06-24T02:21:12;96590.06;;;18.49;37.41
73671;BME280;61968;48.178;11.566;2023-06-24T02:23:39;96598.09;;;18.49;37.30
73671;BME280;61968;48.178;11.566;2023-06-24T02:26:06;96599.69;;;18.45;37.75
73671;BME280;61968;48.178;11.566;2023-06-24T02:28:34;96599.41;;;18.47;37.44
73671;BME280;61968;48.178;11.566;2023-06-24T02:31:01;96602.88;;;18.47;37.70
73671;BME280;61968;48.178;11.566;2023-06-24T02:33:28;96598.09;;;18.49;37.69
73671;BME280;61968;48.178;11.566;2023-06-24T02:35:54;96607.19;;;18.48;37.91
73671;BME280;61968;48.178;11.566;2023-06-24T02:38:22;96602.88;;;18.42;37.86
73671;BME280;61968;48.178;11.566;2023-06-24T02:40:49;96609.28;;;18.36;37.53
73671;BME280;61968;48.178;11.566;2023-06-24T02:43:16;96604.97;;;18.35;37.77
73671;BME280;61968;48.178;11.566;2023-06-24T02:45:43;96612.09;;;18.19;37.94
73671;BME280;61968;48.178;11.566;2023-06-24T02:48:11;96611.25;;;18.13;37.57
73671;BME280;61968;48.178;11.566;2023-06-24T02:50:40;96611.44;;;18.07;37.97
73671;BME280;61968;48.178;11.566;2023-06-24T02:53:09;96611.19;;;18.08;38.09
73671;BME280;61968;48.178;11.566;2023-06-24T02:55:40;96623.06;;;18.18;37.26
73671;BME280;61968;48.178;11.566;2023-06-24T02:58:07;96622.44;;;18.10;38.19
73671;BME280;61968;48.178;11.566;2023-06-24T03:00:34;96633.25;;;18.21;37.79
73671;BME280;61968;48.178;11.566;2023-06-24T03:03:01;96634.06;;;18.21;37.70
73671;BME280;61968;48.178;11.566;2023-06-24T03:05:29;96635.81;;;18.10;37.61
73671;BME280;61968;48.178;11.566;2023-06-24T03:07:56;96633.47;;;17.82;38.13
73671;BME280;61968;48.178;11.566;2023-06-24T03:10:23;96629.03;;;17.65;38.88
73671;BME280;61968;48.178;11.566;2023-06-24T03:12:51;96633.34;;;17.66;38.72
73671;BME280;61968;48.178;11.566;2023-06-24T03:15:19;96631.66;;;17.87;38.60
73671;BME280;61968;48.178;11.566;2023-06-24T03:17:45;96638.72;;;18.04;38.06
73671;BME280;61968;48.178;11.566;2023-06-24T03:20:12;96642.25;;;18.09;37.50
73671;BME280;61968;48.178;11.566;2023-06-24T03:22:39;96634.78;;;18.11;37.84
73671;BME280;61968;48.178;11.566;2023-06-24T03:25:06;96651.88;;;18.10;37.78
73671;BME280;61968;48.178;11.566;2023-06-24T03:27:32;96662.28;;;18.07;38.09
73671;BME280;61968;48.178;11.566;2023-06-24T03:30:01;96656.13;;;18.06;38.24
73671;BME280;61968;48.178;11.566;2023-06-24T03:32:28;96658.25;;;18.04;38.10
73671;BME280;61968;48.178;11.566;2023-06-24T03:34:54;96655.94;;;18.13;37.97
73671;BME280;61968;48.178;11.566;2023-06-24T03:37:20;96657.88;;;18.18;38.18
73671;BME280;61968;48.178;11.566;2023-06-24T03:39:47;96649.19;;;18.05;38.24
73671;BME280;61968;48.178;11.566;2023-06-24T03:42:13;96657.00;;;18.12;37.76
73671;BME280;61968;48.178;11.566;2023-06-24T03:44:40;96658.16;;;18.21;38.07
73671;BME280;61968;48.178;11.566;2023-06-24T03:47:08;96660.03;;;18.26;37.70
73671;BME280;61968;48.178;11.566;2023-06-24T03:49:34;96662.25;;;18.34;37.33
73671;BME280;61968;48.178;11.566;2023-06-24T03:52:01;96667.75;;;18.17;37.49
73671;BME280;61968;48.178;11.566;2023-06-24T03:54:29;96656.75;;;18.13;37.58
73671;BME280;61968;48.178;11.566;2023-06-24T03:56:55;96653.59;;;18.22;37.78
73671;BME280;61968;48.178;11.566;2023-06-24T03:59:22;96656.38;;;18.05;37.29
73671;BME280;61968;48.178;11.566;2023-06-24T04:01:48;96662.09;;;18.13;37.22
73671;BME280;61968;48.178;11.566;2023-06-24T04:04:18;96660.22;;;18.14;37.25
73671;BME280;61968;48.178;11.566;2023-06-24T04:06:44;96664.25;;;18.17;37.50
73671;BME280;61968;48.178;11.566;2023-06-24T04:09:10;96666.41;;;18.15;37.51
73671;BME280;61968;48.178;11.566;2023-06-24T04:11:37;96669.38;;;18.18;37.07
73671;BME280;61968;48.178;11.566;2023-06-24T04:14:04;96665.25;;;18.10;37.14
73671;BME280;61968;48.178;11.566;2023-06-24T04:16:32;96660.38;;;18.02;37.51
73671;BME280;61968;48.178;11.566;2023-06-24T04:18:58;96657.78;;;18.12;37.03
73671;BME280;61968;48.178;11.566;2023-06-24T04:21:26;96649.53;;;18.14;37.10
73671;BME280;61968;48.178;11.566;2023-06-24T04:23:52;96653.66;;;18.27;36.19
73671;BME280;61968;48.178;11.566;2023-06-24T04:26:19;96660.94;;;18.42;36.01
73671;BME280;61968;48.178;11.566;2023-06-24T04:28:45;96658.97;;;18.22;36.75
73671;BME280;61968;48.178;11.566;2023-06-24T04:31:12;96662.72;;;18.21;36.50
73671;BME280;61968;48.178;11.566;2023-06-24T04:33:38;96661.59;;;18.17;36.82
73671;BME280;61968;48.178;11.566;2023-06-24T04:36:05;96663.09;;;18.07;36.75
73671;BME280;61968;48.178;11.566;2023-06-24T04:38:33;96669.56;;;18.11;36.87
73671;BME280;61968;48.178;11.566;2023-06-24T04:40:59;96670.19;;;18.19;36.54
73671;BME280;61968;48.178;11.566;2023-06-24T04:43:26;96680.84;;;18.13;36.62
73671;BME280;61968;48.178;11.566;2023-06-24T04:45:53;96673.75;;;18.02;36.72
73671;BME280;61968;48.178;11.566;2023-06-24T04:48:20;96675.59;;;17.97;37.05
73671;BME280;61968;48.178;11.566;2023-06-24T04:50:46;96674.25;;;17.99;36.76
73671;BME280;61968;48.178;11.566;2023-06-24T04:53:13;96681.25;;;18.00;36.67
73671;BME280;61968;48.178;11.566;2023-06-24T04:55:41;96689.34;;;18.10;35.95
73671;BME280;61968;48.178;11.566;2023-06-24T04:58:07;96685.75;;;17.95;36.83
73671;BME280;61968;48.178;11.566;2023-06-24T05:00:34;96683.91;;;18.00;36.59
73671;BME280;61968;48.178;11.566;2023-06-24T05:03:00;96686.59;;;18.00;36.71
73671;BME280;61968;48.178;11.566;2023-06-24T05:05:27;96690.41;;;18.09;37.31
73671;BME280;61968;48.178;11.566;2023-06-24T05:07:53;96687.03;;;18.19;39.44
73671;BME280;61968;48.178;11.566;2023-06-24T05:10:20;96682.59;;;18.35;38.86
73671;BME280;61968;48.178;11.566;2023-06-24T05:12:48;96687.63;;;18.64;37.61
73671;BME280;61968;48.178;11.566;2023-06-24T05:15:14;96679.00;;;18.56;36.09
73671;BME280;61968;48.178;11.566;2023-06-24T05:17:42;96680.53;;;18.42;36.86
73671;BME280;61968;48.178;11.566;2023-06-24T05:20:09;96680.59;;;18.52;37.83
73671;BME280;61968;48.178;11.566;2023-06-24T05:22:35;96684.91;;;18.58;35.61
73671;BME280;61968;48.178;11.566;2023-06-24T05:25:02;96686.41;;;18.39;38.42
73671;BME280;61968;48.178;11.566;2023-06-24T05:27:28;96688.91;;;18.56;36.62
73671;BME280;61968;48.178;11.566;2023-06-24T05:29:56;96685.13;;;18.52;36.33
73671;BME280;61968;48.178;11.566;2023-06-24T05:32:23;96685.66;;;18.49;38.34
73671;BME280;61968;48.178;11.566;2023-06-24T05:34:49;96687.81;;;18.52;37.05
73671;BME280;61968;48.178;11.566;2023-06-24T05:37:16;96690.31;;;18.69;37.36
73671;BME280;61968;48.178;11.566;2023-06-24T05:39:42;96696.56;;;18.79;37.59
73671;BME280;61968;48.178;11.566;2023-06-24T05:42:09;96692.09;;;18.95;37.38
73671;BME280;61968;48.178;11.566;2023-06-24T05:44:35;96696.13;;;18.98;35.49
73671;BME280;61968;48.178;11.566;2023-06-24T05:47:03;96695.81;;;18.84;36.76
73671;BME280;61968;48.178;11.566;2023-06-24T05:49:30;96698.28;;;19.01;36.78
73671;BME280;61968;48.178;11.566;2023-06-24T05:51:58;96695.59;;;18.96;35.97
73671;BME280;61968;48.178;11.566;2023-06-24T05:54:25;96700.50;;;18.72;34.76
73671;BME280;61968;48.178;11.566;2023-06-24T05:56:51;96705.09;;;18.76;36.96
73671;BME280;61968;48.178;11.566;2023-06-24T05:59:18;96707.97;;;19.07;36.85
73671;BME280;61968;48.178;11.566;2023-06-24T06:01:44;96710.19;;;19.25;35.57
73671;BME280;61968;48.178;11.566;2023-06-24T06:04:12;96709.34;;;19.15;36.11
73671;BME280;61968;48.178;11.566;2023-06-24T06:06:39;96710.41;;;19.09;36.35
73671;BME280;61968;48.178;11.566;2023-06-24T06:09:05;96717.63;;;19.08;36.40
73671;BME280;61968;48.178;11.566;2023-06-24T06:11:32;96713.09;;;19.14;34.73
73671;BME280;61968;48.178;11.566;2023-06-24T06:13:59;96714.41;;;19.06;35.90
73671;BME280;61968;48.178;11.566;2023-06-24T06:16:25;96710.69;;;19.12;36.01
73671;BME280;61968;48.178;11.566;2023-06-24T06:18:51;96705.47;;;18.85;36.44
73671;BME280;61968;48.178;11.566;2023-06-24T06:21:19;96708.16;;;18.90;35.90
73671;BME280;61968;48.178;11.566;2023-06-24T06:23:46;96706.66;;;19.10;35.93
73671;BME280;61968;48.178;11.566;2023-06-24T06:26:12;96708.84;;;19.18;35.24
73671;BME280;61968;48.178;11.566;2023-06-24T06:28:39;96710.47;;;19.29;35.11
73671;BME280;61968;48.178;11.566;2023-06-24T06:31:06;96709.94;;;19.32;35.02
73671;BME280;61968;48.178;11.566;2023-06-24T06:33:32;96710.50;;;19.34;35.06
73671;BME280;61968;48.178;11.566;2023-06-24T06:35:59;96709.50;;;19.50;34.26
73671;BME280;61968;48.178;11.566;2023-06-24T06:38:26;96706.84;;;19.56;34.41
73671;BME280;61968;48.178;11.566;2023-06-24T06:40:53;96703.34;;;19.55;34.32
73671;BME280;61968;48.178;11.566;2023-06-24T06:43:19;96713.81;;;19.52;31.62
73671;BME280;61968;48.178;11.566;2023-06-24T06:45:46;96703.81;;;19.37;33.40
73671;BME280;61968;48.178;11.566;2023-06-24T06:48:13;96714.03;;;19.45;32.77
73671;BME280;61968;48.178;11.566;2023-06-24T06:50:39;96711.38;;;19.50;32.95
73671;BME280;61968;48.178;11.566;2023-06-24T06:53:06;96710.34;;;19.61;33.03
73671;BME280;61968;48.178;11.566;2023-06-24T06:55:36;96706.59;;;19.78;33.13
73671;BME280;61968;48.178;11.566;2023-06-24T06:58:02;96710.09;;;19.63;31.23
73671;BME280;61968;48.178;11.566;2023-06-24T07:00:29;96712.22;;;19.61;32.41
73671;BME280;61968;48.178;11.566;2023-06-24T07:06:08;96702.34;;;19.82;32.15
73671;BME280;61968;48.178;11.566;2023-06-24T07:08:35;96709.34;;;19.98;31.42
73671;BME280;61968;48.178;11.566;2023-06-24T07:11:03;96713.13;;;20.02;31.44
73671;BME280;61968;48.178;11.566;2023-06-24T07:13:29;96710.16;;;19.93;31.09
73671;BME280;61968;48.178;11.566;2023-06-24T07:15:56;96701.56;;;20.07;30.96
73671;BME280;61968;48.178;11.566;2023-06-24T07:18:23;96704.78;;;20.04;30.99
73671;BME280;61968;48.178;11.566;2023-06-24T07:20:49;96701.28;;;19.98;31.16
73671;BME280;61968;48.178;11.566;2023-06-24T07:23:16;96702.91;;;19.99;31.04
73671;BME280;61968;48.178;11.566;2023-06-24T07:25:42;96700.22;;;20.04;30.28
73671;BME280;61968;48.178;11.566;2023-06-24T07:28:10;96700.47;;;19.98;31.39
73671;BME280;61968;48.178;11.566;2023-06-24T07:30:36;96702.09;;;20.09;30.69
73671;BME280;61968;48.178;11.566;2023-06-24T07:33:03;96703.72;;;20.20;30.88
73671;BME280;61968;48.178;11.566;2023-06-24T07:35:30;96692.44;;;20.13;30.85
73671;BME280;61968;48.178;11.566;2023-06-24T07:37:57;96701.56;;;20.17;30.83
73671;BME280;61968;48.178;11.566;2023-06-24T07:40:23;96699.94;;;20.11;31.12
73671;BME280;61968;48.178;11.566;2023-06-24T07:42:50;96698.09;;;20.16;30.67
73671;BME280;61968;48.178;11.566;2023-06-24T07:45:18;96700.75;;;20.11;30.91
73671;BME280;61968;48.178;11.566;2023-06-24T07:47:44;96704.56;;;20.21;31.09
73671;BME280;61968;48.178;11.566;2023-06-24T07:50:11;96708.56;;;20.28;30.71
73671;BME280;61968;48.178;11.566;2023-06-24T07:52:37;96706.69;;;20.29;30.65
73671;BME280;61968;48.178;11.566;2023-06-24T07:55:04;96702.94;;;20.30;30.21
73671;BME280;61968;48.178;11.566;2023-06-24T07:57:31;96710.16;;;20.04;30.04
73671;BME280;61968;48.178;11.566;2023-06-24T07:59:57;96718.16;;;19.83;31.41
73671;BME280;61968;48.178;11.566;2023-06-24T08:02:25;96719.78;;;20.05;31.34
73671;BME280;61968;48.178;11.566;2023-06-24T08:04:52;96712.56;;;20.10;31.29
73671;BME280;61968;48.178;11.566;2023-06-24T08:07:18;96717.97;;;20.15;31.08
73671;BME280;61968;48.178;11.566;2023-06-24T08:09:45;96724.13;;;20.26;30.38
73671;BME280;61968;48.178;11.566;2023-06-24T08:12:11;96718.75;;;20.26;31.11
73671;BME280;61968;48.178;11.566;2023-06-24T08:14:38;96718.78;;;20.31;30.70
73671;BME280;61968;48.178;11.566;2023-06-24T08:17:04;96713.41;;;20.21;31.26
73671;BME280;61968;48.178;11.566;2023-06-24T08:19:32;96716.63;;;20.23;30.70
73671;BME280;61968;48.178;11.566;2023-06-24T08:21:59;96710.72;;;20.21;31.08
73671;BME280;61968;48.178;11.566;2023-06-24T08:24:25;96708.84;;;20.27;31.07
73671;BME280;61968;48.178;11.566;2023-06-24T08:26:52;96706.44;;;20.35;31.02
73671;BME280;61968;48.178;11.566;2023-06-24T08:29:19;96708.59;;;20.18;31.51
73671;BME280;61968;48.178;11.566;2023-06-24T08:31:45;96703.69;;;20.10;31.41
73671;BME280;61968;48.178;11.566;2023-06-24T08:34:12;96699.97;;;20.21;31.32
73671;BME280;61968;48.178;11.566;2023-06-24T08:36:39;96702.09;;;20.09;31.05
73671;BME280;61968;48.178;11.566;2023-06-24T08:39:07;96702.94;;;20.14;31.67
73671;BME280;61968;48.178;11.566;2023-06-24T08:41:33;96697.81;;;20.13;31.40
73671;BME280;61968;48.178;11.566;2023-06-24T08:44:00;96701.59;;;20.22;31.56
73671;BME280;61968;48.178;11.566;2023-06-24T08:46:27;96704.00;;;20.34;31.30
73671;BME280;61968;48.178;11.566;2023-06-24T08:49:01;96701.00;;;19.94;31.38
73671;BME280;61968;48.178;11.566;2023-06-24T08:51:31;96699.97;;;20.16;31.59
73671;BME280;61968;48.178;11.566;2023-06-24T08:54:01;96701.31;;;20.39;31.45
73671;BME280;61968;48.178;11.566;2023-06-24T08:56:28;96699.94;;;19.85;31.28
73671;BME280;61968;48.178;11.566;2023-06-24T08:58:55;96681.97;;;20.06;31.84
73671;BME280;61968;48.178;11.566;2023-06-24T09:01:21;96689.25;;;20.21;31.63
73671;BME280;61968;48.178;11.566;2023-06-24T09:03:48;96691.66;;;20.33;31.54
73671;BME280;61968;48.178;11.566;2023-06-24T09:06:14;96692.47;;;20.38;31.47
73671;BME280;61968;48.178;11.566;2023-06-24T09:08:41;96692.72;;;20.37;31.01
73671;BME280;61968;48.178;11.566;2023-06-24T09:11:09;96693.53;;;20.37;31.53
73671;BME280;61968;48.178;11.566;2023-06-24T09:13:36;96700.50;;;20.44;31.23
73671;BME280;61968;48.178;11.566;2023-06-24T09:16:13;96694.31;;;20.69;30.76
73671;BME280;61968;48.178;11.566;2023-06-24T09:18:40;96695.63;;;20.71;30.03
73671;BME280;61968;48.178;11.566;2023-06-24T09:21:07;96693.50;;;20.63;31.73
73671;BME280;61968;48.178;11.566;2023-06-24T09:23:35;96698.34;;;20.66;31.71
73671;BME280;61968;48.178;11.566;2023-06-24T09:26:02;96695.34;;;20.62;31.63
73671;BME280;61968;48.178;11.566;2023-06-24T09:28:30;96688.66;;;20.65;31.67
73671;BME280;61968;48.178;11.566;2023-06-24T09:31:06;96695.06;;;20.74;30.98
73671;BME280;61968;48.178;11.566;2023-06-24T09:33:33;96687.03;;;20.79;30.64
73671;BME280;61968;48.178;11.566;2023-06-24T09:36:02;96689.72;;;20.84;30.59
73671;BME280;61968;48.178;11.566;2023-06-24T09:38:32;96686.50;;;20.72;30.75
73671;BME280;61968;48.178;11.566;2023-06-24T09:41:02;96690.25;;;20.71;30.85
73671;BME280;61968;48.178;11.566;2023-06-24T09:43:30;96692.38;;;20.74;30.62
73671;BME280;61968;48.178;11.566;2023-06-24T09:45:57;96688.13;;;20.78;30.77
73671;BME280;61968;48.178;11.566;2023-06-24T09:48:24;96688.88;;;20.89;30.53
73671;BME280;61968;48.178;11.566;2023-06-24T09:50:51;96684.53;;;21.03;30.40
73671;BME280;61968;48.178;11.566;2023-06-24T09:53:17;96682.69;;;20.94;30.58
73671;BME280;61968;48.178;11.566;2023-06-24T09:55:45;96683.56;;;20.38;30.31
73671;BME280;61968;48.178;11.566;2023-06-24T09:58:13;96682.53;;;20.34;31.29
73671;BME280;61968;48.178;11.566;2023-06-24T10:00:42;96673.09;;;20.47;30.55
73671;BME280;61968;48.178;11.566;2023-06-24T10:03:09;96670.94;;;20.54;30.58
73671;BME280;61968;48.178;11.566;2023-06-24T10:05:35;96671.50;;;20.40;30.56
73671;BME280;61968;48.178;11.566;2023-06-24T10:08:02;96666.94;;;20.51;31.01
73671;BME280;61968;48.178;11.566;2023-06-24T10:10:30;96669.88;;;20.50;30.75
73671;BME280;61968;48.178;11.566;2023-06-24T10:12:57;96658.81;;;20.67;30.76
73671;BME280;61968;48.178;11.566;2023-06-24T10:15:24;96667.66;;;20.88;30.50
73671;BME280;61968;48.178;11.566;2023-06-24T10:17:51;96656.84;;;21.03;29.94
73671;BME280;61968;48.178;11.566;2023-06-24T10:20:24;96654.97;;;21.03;29.66
73671;BME280;61968;48.178;11.566;2023-06-24T10:22:51;96647.16;;;21.02;29.76
73671;BME280;61968;48.178;11.566;2023-06-24T10:25:17;96647.69;;;21.09;29.64
73671;BME280;61968;48.178;11.566;2023-06-24T10:27:44;96645.47;;;21.21;29.19
73671;BME280;61968;48.178;11.566;2023-06-24T10:30:17;96639.81;;;21.23;28.87
73671;BME280;61968;48.178;11.566;2023-06-24T10:32:44;96645.75;;;21.20;29.08
73671;BME280;61968;48.178;11.566;2023-06-24T10:35:22;96629.66;;;21.15;29.17
73671;BME280;61968;48.178;11.566;2023-06-24T10:37:55;96634.97;;;21.25;29.52
73671;BME280;61968;48.178;11.566;2023-06-24T10:40:34;96631.66;;;21.38;29.12
73671;BME280;61968;48.178;11.566;2023-06-24T10:43:00;96629.25;;;21.37;28.31
73671;BME280;61968;48.178;11.566;2023-06-24T10:45:27;96627.44;;;21.27;29.04
73671;BME280;61968;48.178;11.566;2023-06-24T10:47:54;96631.25;;;21.21;27.88
73671;BME280;61968;48.178;11.566;2023-06-24T10:50:23;96622.94;;;21.17;28.50
73671;BME280;61968;48.178;11.566;2023-06-24T10:52:50;96621.25;;;21.26;28.29
73671;BME280;61968;48.178;11.566;2023-06-24T10:55:22;96614.56;;;21.14;28.54
73671;BME280;61968;48.178;11.566;2023-06-24T10:57:49;96618.06;;;21.19;26.42
73671;BME280;61968;48.178;11.566;2023-06-24T11:00:15;96612.63;;;21.29;28.17
73671;BME280;61968;48.178;11.566;2023-06-24T11:02:42;96611.53;;;21.36;28.05
73671;BME280;61968;48.178;11.566;2023-06-24T11:05:10;96611.50;;;21.41;27.62
73671;BME280;61968;48.178;11.566;2023-06-24T11:07:38;96609.16;;;21.24;27.54
73671;BME280;61968;48.178;11.566;2023-06-24T11:10:06;96612.66;;;21.24;26.92
73671;BME280;61968;48.178;11.566;2023-06-24T11:12:34;96610.44;;;21.31;27.97
73671;BME280;61968;48.178;11.566;2023-06-24T11:15:01;96595.34;;;21.46;25.56
73671;BME280;61968;48.178;11.566;2023-06-24T11:17:28;96584.81;;;21.49;26.71
73671;BME280;61968;48.178;11.566;2023-06-24T11:19:56;96585.25;;;21.62;26.45
73671;BME280;61968;48.178;11.566;2023-06-24T11:22:24;96580.66;;;21.67;25.88
73671;BME280;61968;48.178;11.566;2023-06-24T11:24:52;96578.63;;;21.49;25.59
73671;BME280;61968;48.178;11.566;2023-06-24T11:27:24;96575.25;;;21.67;26.82
73671;BME280;61968;48.178;11.566;2023-06-24T11:29:51;96565.06;;;21.64;25.77
73671;BME280;61968;48.178;11.566;2023-06-24T11:32:18;96572.22;;;21.79;26.71
73671;BME280;61968;48.178;11.566;2023-06-24T11:34:44;96563.94;;;21.70;26.36
73671;BME280;61968;48.178;11.566;2023-06-24T11:37:12;96562.38;;;21.64;25.81
73671;BME280;61968;48.178;11.566;2023-06-24T11:39:39;96562.66;;;21.63;27.38
73671;BME280;61968;48.178;11.566;2023-06-24T11:42:07;96558.41;;;21.57;26.96
73671;BME280;61968;48.178;11.566;2023-06-24T11:44:34;96555.75;;;21.51;26.97
73671;BME280;61968;48.178;11.566;2023-06-24T11:47:05;96552.53;;;21.49;26.65
73671;BME280;61968;48.178;11.566;2023-06-24T11:49:31;96552.53;;;21.49;26.67
73671;BME280;61968;48.178;11.566;2023-06-24T11:51:58;96549.09;;;21.39;27.00
73671;BME280;61968;48.178;11.566;2023-06-24T11:54:24;96549.06;;;21.44;27.30
73671;BME280;61968;48.178;11.566;2023-06-24T11:56:51;96549.50;;;21.56;27.08
73671;BME280;61968;48.178;11.566;2023-06-24T11:59:20;96540.25;;;21.72;26.51
73671;BME280;61968;48.178;11.566;2023-06-24T12:01:53;96538.63;;;21.71;26.69
73671;BME280;61968;48.178;11.566;2023-06-24T12:04:21;96538.59;;;21.76;26.18
73671;BME280;61968;48.178;11.566;2023-06-24T12:06:47;96533.63;;;21.89;26.70
73671;BME280;61968;48.178;11.566;2023-06-24T12:09:14;96535.47;;;21.64;25.57
73671;BME280;61968;48.178;11.566;2023-06-24T12:11:41;96525.56;;;21.15;25.71
73671;BME280;61968;48.178;11.566;2023-06-24T12:14:07;96534.06;;;20.93;25.73
73671;BME280;61968;48.178;11.566;2023-06-24T12:16:35;96526.41;;;21.11;25.86
73671;BME280;61968;48.178;11.566;2023-06-24T12:19:02;96529.44;;;20.99;25.67
73671;BME280;61968;48.178;11.566;2023-06-24T12:21:29;96514.19;;;21.28;26.08
73671;BME280;61968;48.178;11.566;2023-06-24T12:23:55;96515.41;;;21.46;26.42
73671;BME280;61968;48.178;11.566;2023-06-24T12:26:22;96516.09;;;21.62;26.50
73671;BME280;61968;48.178;11.566;2023-06-24T12:28:48;96512.81;;;21.70;26.29
73671;BME280;61968;48.178;11.566;2023-06-24T12:31:14;96506.81;;;21.79;26.35
73671;BME280;61968;48.178;11.566;2023-06-24T12:33:42;96508.41;;;21.80;26.23
73671;BME280;61968;48.178;11.566;2023-06-24T12:36:09;96500.81;;;21.87;26.18
73671;BME280;61968;48.178;11.566;2023-06-24T12:38:35;96492.41;;;21.93;26.33
73671;BME280;61968;48.178;11.566;2023-06-24T12:41:08;96492.53;;;22.07;26.41
73671;BME280;61968;48.178;11.566;2023-06-24T12:43:39;96492.50;;;22.12;25.70
73671;BME280;61968;48.178;11.566;2023-06-24T12:46:06;96493.50;;;22.16;26.25
73671;BME280;61968;48.178;11.566;2023-06-24T12:48:32;96487.22;;;22.02;26.19
73671;BME280;61968;48.178;11.566;2023-06-24T12:51:00;96496.09;;;22.03;26.06
73671;BME280;61968;48.178;11.566;2023-06-24T12:53:26;96498.97;;;22.11;26.47
73671;BME280;61968;48.178;11.566;2023-06-24T12:55:53;96493.81;;;22.15;26.32